sensor_id;sensor_type;location;lat;lon;timestamp;temperature;humidity
10512;DHT22;5304;48.604;2.096;2023-08-08T03:56:28;14.60;99.90
10512;DHT22;5304;48.604;2.096;2023-08-08T03:59:12;14.40;99.90
10512;DHT22;5304;48.604;2.096;2023-08-08T04:01:56;14.40;99.90
10512;DHT22;5304;48.604;2.096;2023-08-08T04:04:41;14.30;99.90
10512;DHT22;5304;48.604;2.096;2023-08-08T04:07:25;14.20;99.90
10512;DHT22;5304;48.604;2.096;2023-08-08T04:10:10;14.20;99.90
10512;DHT22;5304;48.604;2.096;2023-08-08T04:12:54;14.10;99.90
10512;DHT22;5304;48.604;2.096;2023-08-08T04:15:38;14.10;99.90
10512;DHT22;5304;48.604;2.096;2023-08-08T04:18:23;14.10;99.90
10512;DHT22;5304;48.604;2.096;2023-08-08T04:21:08;14.10;99.90
10512;DHT22;5304;48.604;2.096;2023-08-08T04:23:53;14.00;99.90
10512;DHT22;5304;48.604;2.096;2023-08-08T04:26:38;14.00;99.90
10512;DHT22;5304;48.604;2.096;2023-08-08T04:29:22;14.10;99.90
10512;DHT22;5304;48.604;2.096;2023-08-08T04:32:06;14.10;99.90
10512;DHT22;5304;48.604;2.096;2023-08-08T04:34:51;14.10;99.90
10512;DHT22;5304;48.604;2.096;2023-08-08T04:37:35;14.10;99.90
10512;DHT22;5304;48.604;2.096;2023-08-08T04:40:20;14.10;99.90
10512;DHT22;5304;48.604;2.096;2023-08-08T04:43:04;14.20;99.90
10512;DHT22;5304;48.604;2.096;2023-08-08T04:45:48;14.20;99.90
10512;DHT22;5304;48.604;2.096;2023-08-08T04:48:32;14.20;99.90
10512;DHT22;5304;48.604;2.096;2023-08-08T04:51:16;14.10;99.90
10512;DHT22;5304;48.604;2.096;2023-08-08T04:54:02;14.00;99.90
10512;DHT22;5304;48.604;2.096;2023-08-08T04:56:46;14.10;99.90
10512;DHT22;5304;48.604;2.096;2023-08-08T04:59:30;14.30;99.90
10512;DHT22;5304;48.604;2.096;2023-08-08T05:02:15;14.40;99.90
10512;DHT22;5304;48.604;2.096;2023-08-08T05:05:00;14.30;99.90
10512;DHT22;5304;48.604;2.096;2023-08-08T05:07:44;14.30;99.90
10512;DHT22;5304;48.604;2.096;2023-08-08T05:10:28;14.20;99.90
10512;DHT22;5304;48.604;2.096;2023-08-08T05:13:15;14.20;99.90
10512;DHT22;5304;48.604;2.096;2023-08-08T05:15:59;14.30;99.90
10512;DHT22;5304;48.604;2.096;2023-08-08T05:18:43;14.30;99.90
10512;DHT22;5304;48.604;2.096;2023-08-08T05:21:32;14.30;99.90
10512;DHT22;5304;48.604;2.096;2023-08-08T05:24:16;14.40;99.90
10512;DHT22;5304;48.604;2.096;2023-08-08T05:27:00;14.50;99.90
10512;DHT22;5304;48.604;2.096;2023-08-08T05:29:44;14.40;99.90
10512;DHT22;5304;48.604;2.096;2023-08-08T05:32:29;14.40;99.90
10512;DHT22;5304;48.604;2.096;2023-08-08T05:35:13;14.40;99.90
10512;DHT22;5304;48.604;2.096;2023-08-08T05:37:57;14.40;99.90
10512;DHT22;5304;48.604;2.096;2023-08-08T05:40:41;14.40;99.90
10512;DHT22;5304;48.604;2.096;2023-08-08T05:43:26;14.40;99.90
10512;DHT22;5304;48.604;2.096;2023-08-08T05:46:13;14.40;99.90
10512;DHT22;5304;48.604;2.096;2023-08-08T05:48:57;14.40;99.90
10512;DHT22;5304;48.604;2.096;2023-08-08T05:51:41;14.40;99.90
10512;DHT22;5304;48.604;2.096;2023-08-08T05:54:25;14.50;99.90
10512;DHT22;5304;48.604;2.096;2023-08-08T05:57:10;14.60;99.90
10512;DHT22;5304;48.604;2.096;2023-08-08T05:59:54;14.60;99.90
10512;DHT22;5304;48.604;2.096;2023-08-08T06:02:38;14.60;99.90
10512;DHT22;5304;48.604;2.096;2023-08-08T06:05:23;14.60;99.90
10512;DHT22;5304;48.604;2.096;2023-08-08T06:08:08;14.70;99.90
10512;DHT22;5304;48.604;2.096;2023-08-08T06:10:55;14.70;99.90
10512;DHT22;5304;48.604;2.096;2023-08-08T06:13:40;14.80;99.90
10512;DHT22;5304;48.604;2.096;2023-08-08T06:16:24;14.80;99.90
10512;DHT22;5304;48.604;2.096;2023-08-08T06:19:08;15.00;99.90
10512;DHT22;5304;48.604;2.096;2023-08-08T06:21:54;15.10;99.90
10512;DHT22;5304;48.604;2.096;2023-08-08T06:24:38;15.20;99.90
10512;DHT22;5304;48.604;2.096;2023-08-08T06:27:23;15.30;99.90
10512;DHT22;5304;48.604;2.096;2023-08-08T06:30:08;15.50;99.90
10512;DHT22;5304;48.604;2.096;2023-08-08T06:32:52;15.70;99.90
10512;DHT22;5304;48.604;2.096;2023-08-08T06:35:37;16.10;99.90
10512;DHT22;5304;48.604;2.096;2023-08-08T06:38:21;16.30;99.90
10512;DHT22;5304;48.604;2.096;2023-08-08T06:41:06;16.40;99.90
10512;DHT22;5304;48.604;2.096;2023-08-08T06:43:51;16.70;99.90
10512;DHT22;5304;48.604;2.096;2023-08-08T06:46:35;16.80;99.90
10512;DHT22;5304;48.604;2.096;2023-08-08T06:49:19;17.10;99.90
10512;DHT22;5304;48.604;2.096;2023-08-08T06:52:04;17.30;99.90
10512;DHT22;5304;48.604;2.096;2023-08-08T06:54:49;17.50;99.90
10512;DHT22;5304;48.604;2.096;2023-08-08T06:57:34;17.50;99.90
10512;DHT22;5304;48.604;2.096;2023-08-08T07:00:19;17.60;99.90
10512;DHT22;5304;48.604;2.096;2023-08-08T07:03:03;17.90;99.90
10512;DHT22;5304;48.604;2.096;2023-08-08T07:05:47;18.20;99.90
10512;DHT22;5304;48.604;2.096;2023-08-08T07:08:35;18.60;99.90
10512;DHT22;5304;48.604;2.096;2023-08-08T07:11:21;19.20;99.90
10512;DHT22;5304;48.604;2.096;2023-08-08T07:14:06;19.60;99.90
10512;DHT22;5304;48.604;2.096;2023-08-08T07:16:50;19.80;99.90
10512;DHT22;5304;48.604;2.096;2023-08-08T07:19:35;20.40;99.90
10512;DHT22;5304;48.604;2.096;2023-08-08T07:22:20;21.20;99.90
10512;DHT22;5304;48.604;2.096;2023-08-08T07:25:06;21.60;99.90
10512;DHT22;5304;48.604;2.096;2023-08-08T07:27:51;21.40;99.90
10512;DHT22;5304;48.604;2.096;2023-08-08T07:30:35;21.20;99.90
10512;DHT22;5304;48.604;2.096;2023-08-08T07:33:20;20.80;99.90
10512;DHT22;5304;48.604;2.096;2023-08-08T07:36:04;20.80;99.90
10512;DHT22;5304;48.604;2.096;2023-08-08T07:38:49;20.70;99.90
10512;DHT22;5304;48.604;2.096;2023-08-08T07:41:33;21.00;99.90
10512;DHT22;5304;48.604;2.096;2023-08-08T07:44:18;21.40;99.90
10512;DHT22;5304;48.604;2.096;2023-08-08T07:47:04;22.10;99.90
10512;DHT22;5304;48.604;2.096;2023-08-08T07:49:48;22.90;99.90
10512;DHT22;5304;48.604;2.096;2023-08-08T07:52:32;24.10;99.90
10512;DHT22;5304;48.604;2.096;2023-08-08T07:55:17;25.80;99.90
10512;DHT22;5304;48.604;2.096;2023-08-08T07:58:01;27.40;99.90
10512;DHT22;5304;48.604;2.096;2023-08-08T08:00:45;28.40;99.90
10512;DHT22;5304;48.604;2.096;2023-08-08T08:03:30;29.20;99.90
10512;DHT22;5304;48.604;2.096;2023-08-08T08:06:14;29.50;99.90
10512;DHT22;5304;48.604;2.096;2023-08-08T08:08:58;29.10;99.90
10512;DHT22;5304;48.604;2.096;2023-08-08T08:11:42;29.70;99.90
10512;DHT22;5304;48.604;2.096;2023-08-08T08:14:26;29.50;99.90
10512;DHT22;5304;48.604;2.096;2023-08-08T08:17:11;29.10;99.90
10512;DHT22;5304;48.604;2.096;2023-08-08T08:19:56;28.60;99.90
10512;DHT22;5304;48.604;2.096;2023-08-08T08:22:40;28.60;99.90
10512;DHT22;5304;48.604;2.096;2023-08-08T08:25:25;28.10;99.90
10512;DHT22;5304;48.604;2.096;2023-08-08T08:28:09;27.00;99.90
10512;DHT22;5304;48.604;2.096;2023-08-08T08:30:53;26.70;99.90
10512;DHT22;5304;48.604;2.096;2023-08-08T08:33:38;27.10;99.90
10512;DHT22;5304;48.604;2.096;2023-08-08T08:36:22;27.30;99.90
10512;DHT22;5304;48.604;2.096;2023-08-08T08:39:06;27.10;99.90
10512;DHT22;5304;48.604;2.096;2023-08-08T08:41:55;26.60;99.90
10512;DHT22;5304;48.604;2.096;2023-08-08T08:44:43;26.70;99.90
10512;DHT22;5304;48.604;2.096;2023-08-08T08:47:30;26.60;99.90
10512;DHT22;5304;48.604;2.096;2023-08-08T08:50:16;27.00;99.90
10512;DHT22;5304;48.604;2.096;2023-08-08T08:53:02;27.20;99.90
10512;DHT22;5304;48.604;2.096;2023-08-08T08:55:47;26.60;99.90
10512;DHT22;5304;48.604;2.096;2023-08-08T08:58:32;25.90;99.90
10512;DHT22;5304;48.604;2.096;2023-08-08T09:01:16;25.40;99.90
10512;DHT22;5304;48.604;2.096;2023-08-08T09:04:03;25.10;99.90
10512;DHT22;5304;48.604;2.096;2023-08-08T09:06:49;25.00;99.90
10512;DHT22;5304;48.604;2.096;2023-08-08T09:09:33;24.80;99.90
10512;DHT22;5304;48.604;2.096;2023-08-08T09:12:18;24.30;99.90
10512;DHT22;5304;48.604;2.096;2023-08-08T09:15:03;24.30;99.90
10512;DHT22;5304;48.604;2.096;2023-08-08T09:17:48;24.40;99.90
10512;DHT22;5304;48.604;2.096;2023-08-08T09:20:32;24.30;99.90
10512;DHT22;5304;48.604;2.096;2023-08-08T09:23:16;24.30;99.90
10512;DHT22;5304;48.604;2.096;2023-08-08T09:26:01;24.20;99.90
10512;DHT22;5304;48.604;2.096;2023-08-08T09:28:45;24.20;99.90
10512;DHT22;5304;48.604;2.096;2023-08-08T09:31:29;24.40;99.90
10512;DHT22;5304;48.604;2.096;2023-08-08T09:34:15;24.30;99.90
10512;DHT22;5304;48.604;2.096;2023-08-08T09:37:00;24.10;99.90
10512;DHT22;5304;48.604;2.096;2023-08-08T09:39:44;24.40;99.90
10512;DHT22;5304;48.604;2.096;2023-08-08T09:42:28;24.60;99.90
10512;DHT22;5304;48.604;2.096;2023-08-08T09:45:13;24.70;99.90
10512;DHT22;5304;48.604;2.096;2023-08-08T09:47:59;24.80;99.90
10512;DHT22;5304;48.604;2.096;2023-08-08T09:50:44;24.90;99.90
10512;DHT22;5304;48.604;2.096;2023-08-08T09:53:28;24.90;99.90
10512;DHT22;5304;48.604;2.096;2023-08-08T09:56:14;25.00;99.90
10512;DHT22;5304;48.604;2.096;2023-08-08T09:58:59;24.70;99.90
10512;DHT22;5304;48.604;2.096;2023-08-08T10:01:46;24.80;99.90
10512;DHT22;5304;48.604;2.096;2023-08-08T10:04:31;24.60;99.90
10512;DHT22;5304;48.604;2.096;2023-08-08T10:07:15;24.60;99.90
10512;DHT22;5304;48.604;2.096;2023-08-08T10:09:59;24.80;99.90
10512;DHT22;5304;48.604;2.096;2023-08-08T10:12:44;24.70;99.90
10512;DHT22;5304;48.604;2.096;2023-08-08T10:15:29;24.60;99.90
10512;DHT22;5304;48.604;2.096;2023-08-08T10:18:14;24.80;99.90
10512;DHT22;5304;48.604;2.096;2023-08-08T10:20:59;24.70;99.90
10512;DHT22;5304;48.604;2.096;2023-08-08T10:23:43;24.60;99.90
10512;DHT22;5304;48.604;2.096;2023-08-08T10:26:27;24.60;99.90
10512;DHT22;5304;48.604;2.096;2023-08-08T10:29:17;24.30;99.90
10512;DHT22;5304;48.604;2.096;2023-08-08T10:32:04;24.10;99.90
10512;DHT22;5304;48.604;2.096;2023-08-08T10:34:49;24.10;99.90
10512;DHT22;5304;48.604;2.096;2023-08-08T10:37:33;24.30;99.90
10512;DHT22;5304;48.604;2.096;2023-08-08T10:40:18;24.60;99.90
10512;DHT22;5304;48.604;2.096;2023-08-08T10:43:11;24.90;99.90
10512;DHT22;5304;48.604;2.096;2023-08-08T10:46:01;24.60;99.90
10512;DHT22;5304;48.604;2.096;2023-08-08T10:48:50;24.20;99.90
10512;DHT22;5304;48.604;2.096;2023-08-08T10:51:37;23.90;99.90
10512;DHT22;5304;48.604;2.096;2023-08-08T10:54:25;24.50;99.90
10512;DHT22;5304;48.604;2.096;2023-08-08T10:57:15;24.80;99.90
10512;DHT22;5304;48.604;2.096;2023-08-08T11:00:17;25.20;99.90
10512;DHT22;5304;48.604;2.096;2023-08-08T11:03:02;25.00;99.90
10512;DHT22;5304;48.604;2.096;2023-08-08T11:05:49;24.80;99.90
10512;DHT22;5304;48.604;2.096;2023-08-08T11:08:35;24.50;99.90
10512;DHT22;5304;48.604;2.096;2023-08-08T11:11:21;24.20;99.90
10512;DHT22;5304;48.604;2.096;2023-08-08T11:14:13;24.50;99.90
10512;DHT22;5304;48.604;2.096;2023-08-08T11:16:59;24.50;99.90
10512;DHT22;5304;48.604;2.096;2023-08-08T11:19:44;24.40;99.90
10512;DHT22;5304;48.604;2.096;2023-08-08T11:22:28;24.20;99.90
10512;DHT22;5304;48.604;2.096;2023-08-08T11:25:14;24.00;99.90
10512;DHT22;5304;48.604;2.096;2023-08-08T11:27:59;24.10;99.90
10512;DHT22;5304;48.604;2.096;2023-08-08T11:30:45;24.00;99.90
10512;DHT22;5304;48.604;2.096;2023-08-08T11:33:30;23.70;99.90
10512;DHT22;5304;48.604;2.096;2023-08-08T11:36:15;23.60;99.90
10512;DHT22;5304;48.604;2.096;2023-08-08T11:39:02;23.70;99.90
10512;DHT22;5304;48.604;2.096;2023-08-08T11:41:51;23.80;99.90
10512;DHT22;5304;48.604;2.096;2023-08-08T11:44:36;23.70;99.90
10512;DHT22;5304;48.604;2.096;2023-08-08T11:47:25;23.70;99.90
10512;DHT22;5304;48.604;2.096;2023-08-08T11:50:10;23.40;99.90
10512;DHT22;5304;48.604;2.096;2023-08-08T11:52:55;23.40;99.90
10512;DHT22;5304;48.604;2.096;2023-08-08T11:55:39;23.50;99.90
10512;DHT22;5304;48.604;2.096;2023-08-08T11:58:25;23.50;99.90
10512;DHT22;5304;48.604;2.096;2023-08-08T12:01:10;23.40;99.90
10512;DHT22;5304;48.604;2.096;2023-08-08T12:03:57;23.50;99.90
10512;DHT22;5304;48.604;2.096;2023-08-08T12:06:41;23.80;99.90
10512;DHT22;5304;48.604;2.096;2023-08-08T12:09:32;23.90;99.90
10512;DHT22;5304;48.604;2.096;2023-08-08T12:12:19;23.80;99.90
10512;DHT22;5304;48.604;2.096;2023-08-08T12:15:06;23.80;99.90
10512;DHT22;5304;48.604;2.096;2023-08-08T12:17:51;23.60;99.90
10512;DHT22;5304;48.604;2.096;2023-08-08T12:20:35;23.80;99.90
10512;DHT22;5304;48.604;2.096;2023-08-08T12:23:19;24.10;99.90
10512;DHT22;5304;48.604;2.096;2023-08-08T12:26:04;24.60;99.90
10512;DHT22;5304;48.604;2.096;2023-08-08T12:28:49;25.00;99.90
10512;DHT22;5304;48.604;2.096;2023-08-08T12:31:34;25.00;99.90
10512;DHT22;5304;48.604;2.096;2023-08-08T12:34:19;25.00;99.90
10512;DHT22;5304;48.604;2.096;2023-08-08T12:37:03;25.40;99.90
10512;DHT22;5304;48.604;2.096;2023-08-08T12:39:48;25.50;99.90
10512;DHT22;5304;48.604;2.096;2023-08-08T12:42:32;25.30;99.90
10512;DHT22;5304;48.604;2.096;2023-08-08T12:45:17;24.70;99.90
10512;DHT22;5304;48.604;2.096;2023-08-08T12:48:02;24.60;99.90
10512;DHT22;5304;48.604;2.096;2023-08-08T12:50:46;24.80;99.90
10512;DHT22;5304;48.604;2.096;2023-08-08T12:53:30;25.10;99.90
10512;DHT22;5304;48.604;2.096;2023-08-08T12:56:14;25.10;99.90
10512;DHT22;5304;48.604;2.096;2023-08-08T12:59:00;25.20;99.90
10512;DHT22;5304;48.604;2.096;2023-08-08T13:01:44;25.30;99.90
10512;DHT22;5304;48.604;2.096;2023-08-08T13:04:28;25.20;99.90
10512;DHT22;5304;48.604;2.096;2023-08-08T13:07:12;25.00;99.90
10512;DHT22;5304;48.604;2.096;2023-08-08T13:09:57;24.90;99.90
10512;DHT22;5304;48.604;2.096;2023-08-08T13:12:42;25.00;99.90
10512;DHT22;5304;48.604;2.096;2023-08-08T13:15:27;25.40;99.90
10512;DHT22;5304;48.604;2.096;2023-08-08T13:18:11;25.80;99.90
10512;DHT22;5304;48.604;2.096;2023-08-08T13:20:55;26.00;99.90
10512;DHT22;5304;48.604;2.096;2023-08-08T13:23:41;26.10;99.90
10512;DHT22;5304;48.604;2.096;2023-08-08T13:26:25;25.90;99.90
10512;DHT22;5304;48.604;2.096;2023-08-08T13:29:11;25.80;99.90
10512;DHT22;5304;48.604;2.096;2023-08-08T13:31:56;26.00;99.90
10512;DHT22;5304;48.604;2.096;2023-08-08T13:34:40;25.90;99.90
10512;DHT22;5304;48.604;2.096;2023-08-08T13:37:24;25.90;99.90
10512;DHT22;5304;48.604;2.096;2023-08-08T13:40:09;25.70;99.90
10512;DHT22;5304;48.604;2.096;2023-08-08T13:42:53;25.90;99.90
10512;DHT22;5304;48.604;2.096;2023-08-08T13:45:38;26.00;99.90
10512;DHT22;5304;48.604;2.096;2023-08-08T13:48:23;26.10;99.90
10512;DHT22;5304;48.604;2.096;2023-08-08T13:51:07;26.10;99.90
10512;DHT22;5304;48.604;2.096;2023-08-08T13:53:52;25.80;99.90
10512;DHT22;5304;48.604;2.096;2023-08-08T13:56:36;25.60;99.90
10512;DHT22;5304;48.604;2.096;2023-08-08T13:59:20;25.70;99.90
10512;DHT22;5304;48.604;2.096;2023-08-08T14:02:04;25.60;99.90
10512;DHT22;5304;48.604;2.096;2023-08-08T14:04:48;25.50;99.90
10512;DHT22;5304;48.604;2.096;2023-08-08T14:07:36;25.50;99.90
10512;DHT22;5304;48.604;2.096;2023-08-08T14:10:20;25.40;99.90
10512;DHT22;5304;48.604;2.096;2023-08-08T14:13:04;25.20;99.90
10512;DHT22;5304;48.604;2.096;2023-08-08T14:15:48;25.30;99.90
10512;DHT22;5304;48.604;2.096;2023-08-08T14:18:32;25.50;99.90
10512;DHT22;5304;48.604;2.096;2023-08-08T14:21:17;25.40;99.90
10512;DHT22;5304;48.604;2.096;2023-08-08T14:24:01;25.40;99.90
10512;DHT22;5304;48.604;2.096;2023-08-08T14:26:47;25.30;99.90
10512;DHT22;5304;48.604;2.096;2023-08-08T14:29:32;25.20;99.90
10512;DHT22;5304;48.604;2.096;2023-08-08T14:32:16;25.10;99.90
10512;DHT22;5304;48.604;2.096;2023-08-08T14:35:02;25.10;99.90
10512;DHT22;5304;48.604;2.096;2023-08-08T14:37:47;25.00;99.90
10512;DHT22;5304;48.604;2.096;2023-08-08T14:40:31;25.00;99.90
10512;DHT22;5304;48.604;2.096;2023-08-08T14:43:16;25.00;99.90
10512;DHT22;5304;48.604;2.096;2023-08-08T14:46:00;24.90;99.90
10512;DHT22;5304;48.604;2.096;2023-08-08T14:48:44;24.80;99.90
10512;DHT22;5304;48.604;2.096;2023-08-08T14:51:28;24.80;99.90
10512;DHT22;5304;48.604;2.096;2023-08-08T14:54:12;24.60;99.90
10512;DHT22;5304;48.604;2.096;2023-08-08T14:56:56;24.50;99.90
10512;DHT22;5304;48.604;2.096;2023-08-08T14:59:41;24.40;99.90
10512;DHT22;5304;48.604;2.096;2023-08-08T15:02:25;24.40;99.90
10512;DHT22;5304;48.604;2.096;2023-08-08T15:05:09;24.40;99.90
10512;DHT22;5304;48.604;2.096;2023-08-08T15:07:56;24.40;99.90
10512;DHT22;5304;48.604;2.096;2023-08-08T15:10:40;24.50;99.90
10512;DHT22;5304;48.604;2.096;2023-08-08T15:13:24;24.50;99.90
10512;DHT22;5304;48.604;2.096;2023-08-08T15:16:08;24.50;99.90
10512;DHT22;5304;48.604;2.096;2023-08-08T15:18:52;24.40;99.90
10512;DHT22;5304;48.604;2.096;2023-08-08T15:21:37;24.40;99.90
10512;DHT22;5304;48.604;2.096;2023-08-08T15:24:21;24.20;99.90
10512;DHT22;5304;48.604;2.096;2023-08-08T15:27:05;24.30;99.90
10512;DHT22;5304;48.604;2.096;2023-08-08T15:29:50;24.30;99.90
10512;DHT22;5304;48.604;2.096;2023-08-08T15:32:34;24.30;99.90
10512;DHT22;5304;48.604;2.096;2023-08-08T15:35:19;24.30;99.90
10512;DHT22;5304;48.604;2.096;2023-08-08T15:38:03;24.30;99.90
10512;DHT22;5304;48.604;2.096;2023-08-08T15:40:48;24.30;99.90
10512;DHT22;5304;48.604;2.096;2023-08-08T15:43:32;24.30;99.90
10512;DHT22;5304;48.604;2.096;2023-08-08T15:46:16;24.10;99.90
10512;DHT22;5304;48.604;2.096;2023-08-08T15:49:01;24.10;99.90
10512;DHT22;5304;48.604;2.096;2023-08-08T15:51:48;24.10;99.90
10512;DHT22;5304;48.604;2.096;2023-08-08T15:54:32;24.10;99.90
10512;DHT22;5304;48.604;2.096;2023-08-08T15:57:16;24.00;99.90
10512;DHT22;5304;48.604;2.096;2023-08-08T16:00:01;23.90;99.90
10512;DHT22;5304;48.604;2.096;2023-08-08T16:02:47;23.90;99.90
10512;DHT22;5304;48.604;2.096;2023-08-08T16:05:32;23.90;99.90
10512;DHT22;5304;48.604;2.096;2023-08-08T16:08:16;23.90;99.90
10512;DHT22;5304;48.604;2.096;2023-08-08T16:11:02;23.80;99.90
10512;DHT22;5304;48.604;2.096;2023-08-08T16:13:47;23.80;99.90
10512;DHT22;5304;48.604;2.096;2023-08-08T16:16:31;23.80;99.90
10512;DHT22;5304;48.604;2.096;2023-08-08T16:19:16;23.80;99.90
10512;DHT22;5304;48.604;2.096;2023-08-08T16:22:00;24.00;99.90
10512;DHT22;5304;48.604;2.096;2023-08-08T16:24:47;24.10;99.90
10512;DHT22;5304;48.604;2.096;2023-08-08T16:27:32;24.00;99.90
10512;DHT22;5304;48.604;2.096;2023-08-08T16:30:16;23.90;99.90
10512;DHT22;5304;48.604;2.096;2023-08-08T16:33:01;23.80;99.90
10512;DHT22;5304;48.604;2.096;2023-08-08T16:35:45;23.70;99.90
10512;DHT22;5304;48.604;2.096;2023-08-08T16:38:29;23.60;99.90
10512;DHT22;5304;48.604;2.096;2023-08-08T16:41:13;23.50;99.90
10512;DHT22;5304;48.604;2.096;2023-08-08T16:44:03;23.40;99.90
10512;DHT22;5304;48.604;2.096;2023-08-08T16:46:47;23.40;99.90
10512;DHT22;5304;48.604;2.096;2023-08-08T16:49:32;23.40;99.90
10512;DHT22;5304;48.604;2.096;2023-08-08T16:52:16;23.40;99.90
10512;DHT22;5304;48.604;2.096;2023-08-08T16:55:01;23.40;99.90
10512;DHT22;5304;48.604;2.096;2023-08-08T16:57:45;23.40;99.90
10512;DHT22;5304;48.604;2.096;2023-08-08T17:00:29;23.50;99.90
10512;DHT22;5304;48.604;2.096;2023-08-08T17:03:14;23.50;99.90
10512;DHT22;5304;48.604;2.096;2023-08-08T17:05:58;23.40;99.90
10512;DHT22;5304;48.604;2.096;2023-08-08T17:08:42;23.40;99.90
10512;DHT22;5304;48.604;2.096;2023-08-08T17:11:27;23.30;99.90
10512;DHT22;5304;48.604;2.096;2023-08-08T17:14:11;23.30;99.90
10512;DHT22;5304;48.604;2.096;2023-08-08T17:16:56;23.30;99.90
10512;DHT22;5304;48.604;2.096;2023-08-08T17:19:41;23.30;99.90
10512;DHT22;5304;48.604;2.096;2023-08-08T17:22:25;23.20;99.90
10512;DHT22;5304;48.604;2.096;2023-08-08T17:25:10;23.20;99.90
10512;DHT22;5304;48.604;2.096;2023-08-08T17:27:54;23.10;99.90
10512;DHT22;5304;48.604;2.096;2023-08-08T17:30:38;23.00;99.90
10512;DHT22;5304;48.604;2.096;2023-08-08T17:33:22;23.00;99.90
10512;DHT22;5304;48.604;2.096;2023-08-08T17:36:07;23.00;99.90
10512;DHT22;5304;48.604;2.096;2023-08-08T17:38:51;22.90;99.90
10512;DHT22;5304;48.604;2.096;2023-08-08T17:41:35;22.80;99.90
10512;DHT22;5304;48.604;2.096;2023-08-08T17:44:19;22.80;99.90
10512;DHT22;5304;48.604;2.096;2023-08-08T17:47:04;22.80;99.90
10512;DHT22;5304;48.604;2.096;2023-08-08T17:49:48;22.60;99.90
10512;DHT22;5304;48.604;2.096;2023-08-08T17:52:33;22.70;99.90
10512;DHT22;5304;48.604;2.096;2023-08-08T17:55:17;22.60;99.90
10512;DHT22;5304;48.604;2.096;2023-08-08T17:58:02;22.50;99.90
10512;DHT22;5304;48.604;2.096;2023-08-08T18:00:46;22.50;99.90
10512;DHT22;5304;48.604;2.096;2023-08-08T18:03:30;22.40;99.90
10512;DHT22;5304;48.604;2.096;2023-08-08T18:06:15;22.30;99.90
10512;DHT22;5304;48.604;2.096;2023-08-08T18:09:00;22.30;99.90
10512;DHT22;5304;48.604;2.096;2023-08-08T18:11:44;22.20;99.90
10512;DHT22;5304;48.604;2.096;2023-08-08T18:14:29;22.10;99.90
10512;DHT22;5304;48.604;2.096;2023-08-08T18:17:14;22.10;99.90
10512;DHT22;5304;48.604;2.096;2023-08-08T18:19:59;22.00;99.90
10512;DHT22;5304;48.604;2.096;2023-08-08T18:22:44;21.90;99.90
10512;DHT22;5304;48.604;2.096;2023-08-08T18:25:28;21.80;99.90
10512;DHT22;5304;48.604;2.096;2023-08-08T18:28:13;21.80;99.90
10512;DHT22;5304;48.604;2.096;2023-08-08T18:30:57;21.80;99.90
10512;DHT22;5304;48.604;2.096;2023-08-08T18:33:42;21.80;99.90
10512;DHT22;5304;48.604;2.096;2023-08-08T18:36:27;21.70;99.90
10512;DHT22;5304;48.604;2.096;2023-08-08T18:39:11;21.70;99.90
10512;DHT22;5304;48.604;2.096;2023-08-08T18:41:55;21.60;99.90
10512;DHT22;5304;48.604;2.096;2023-08-08T18:44:40;21.50;99.90
10512;DHT22;5304;48.604;2.096;2023-08-08T18:47:24;21.50;99.90
10512;DHT22;5304;48.604;2.096;2023-08-08T18:50:08;21.50;99.90
10512;DHT22;5304;48.604;2.096;2023-08-08T18:52:53;21.40;99.90
10512;DHT22;5304;48.604;2.096;2023-08-08T18:55:37;21.40;99.90
10512;DHT22;5304;48.604;2.096;2023-08-08T18:58:21;21.40;99.90
10512;DHT22;5304;48.604;2.096;2023-08-08T19:01:05;21.30;99.90
10512;DHT22;5304;48.604;2.096;2023-08-08T19:03:50;21.20;99.90
10512;DHT22;5304;48.604;2.096;2023-08-08T19:06:34;21.20;99.90
10512;DHT22;5304;48.604;2.096;2023-08-08T19:09:18;21.10;99.90
10512;DHT22;5304;48.604;2.096;2023-08-08T19:12:03;21.10;99.90
10512;DHT22;5304;48.604;2.096;2023-08-08T19:14:48;21.00;99.90
10512;DHT22;5304;48.604;2.096;2023-08-08T19:17:32;21.00;99.90
10512;DHT22;5304;48.604;2.096;2023-08-08T19:20:17;21.00;99.90
10512;DHT22;5304;48.604;2.096;2023-08-08T19:23:01;21.00;99.90
10512;DHT22;5304;48.604;2.096;2023-08-08T19:25:45;21.00;99.90
10512;DHT22;5304;48.604;2.096;2023-08-08T19:28:29;20.90;99.90
10512;DHT22;5304;48.604;2.096;2023-08-08T19:31:14;20.80;99.90
10512;DHT22;5304;48.604;2.096;2023-08-08T19:34:00;20.70;99.90
10512;DHT22;5304;48.604;2.096;2023-08-08T19:36:44;20.60;99.90
10512;DHT22;5304;48.604;2.096;2023-08-08T19:39:29;20.60;99.90
10512;DHT22;5304;48.604;2.096;2023-08-08T19:42:13;20.60;99.90
10512;DHT22;5304;48.604;2.096;2023-08-08T19:44:57;20.50;99.90
10512;DHT22;5304;48.604;2.096;2023-08-08T19:47:42;20.40;99.90
10512;DHT22;5304;48.604;2.096;2023-08-08T19:50:26;20.50;99.90
10512;DHT22;5304;48.604;2.096;2023-08-08T19:53:10;20.50;99.90
10512;DHT22;5304;48.604;2.096;2023-08-08T19:55:54;20.40;99.90
10512;DHT22;5304;48.604;2.096;2023-08-08T19:58:41;20.30;99.90
10512;DHT22;5304;48.604;2.096;2023-08-08T20:01:26;20.20;99.90
10512;DHT22;5304;48.604;2.096;2023-08-08T20:04:11;20.10;99.90
10512;DHT22;5304;48.604;2.096;2023-08-08T20:06:55;20.10;99.90
10512;DHT22;5304;48.604;2.096;2023-08-08T20:09:39;20.10;99.90
10512;DHT22;5304;48.604;2.096;2023-08-08T20:12:23;20.10;99.90
10512;DHT22;5304;48.604;2.096;2023-08-08T20:15:08;20.10;99.90
10512;DHT22;5304;48.604;2.096;2023-08-08T20:17:53;20.00;99.90
10512;DHT22;5304;48.604;2.096;2023-08-08T20:20:37;20.00;99.90
10512;DHT22;5304;48.604;2.096;2023-08-08T20:23:22;19.90;99.90
10512;DHT22;5304;48.604;2.096;2023-08-08T20:26:06;19.90;99.90
10512;DHT22;5304;48.604;2.096;2023-08-08T20:28:51;20.00;99.90
10512;DHT22;5304;48.604;2.096;2023-08-08T20:31:35;20.00;99.90
10512;DHT22;5304;48.604;2.096;2023-08-08T20:34:19;20.10;99.90
10512;DHT22;5304;48.604;2.096;2023-08-08T20:37:04;20.00;99.90
10512;DHT22;5304;48.604;2.096;2023-08-08T20:39:49;20.00;99.90
